Time;durP1;ratioP1;P1;durP2;ratioP2;P2;SDS_P1;SDS_P2;PMS_P1;PMS_P2;Temp;Humidity;BMP_temperature;BMP_pressure;BME280_temperature;BME280_humidity;BME280_pressure;Samples;Min_cycle;Max_cycle;Signal;HPM_P1;HPM_P2
2022/01/17 00:01:29;;;;;;;18.92;2.92;;;5.90;99.90;;;;;;4876041;29;20044;-85
2022/01/17 00:03:55;;;;;;;14.27;3.25;;;6.00;99.90;;;;;;4862622;29;20174;-86
2022/01/17 00:06:20;;;;;;;16.70;3.33;;;5.90;99.90;;;;;;4862681;29;20122;-87
2022/01/17 00:08:46;;;;;;;20.70;3.05;;;5.90;99.90;;;;;;4862529;29;20088;-86
2022/01/17 00:11:12;;;;;;;18.17;2.55;;;5.80;99.90;;;;;;4877035;29;20057;-86
2022/01/17 00:13:39;;;;;;;17.05;2.80;;;5.80;99.90;;;;;;4859716;29;20068;-86
2022/01/17 00:16:10;;;;;;;20.30;2.80;;;5.80;99.90;;;;;;4859492;29;20472;-86
2022/01/17 00:21:04;;;;;;;21.30;3.03;;;5.80;99.90;;;;;;4874800;29;20092;-86
2022/01/17 00:23:30;;;;;;;18.50;3.10;;;5.70;99.90;;;;;;4843538;29;20052;-87
2022/01/17 00:25:56;;;;;;;21.52;2.75;;;5.70;99.90;;;;;;4843747;29;20420;-87
2022/01/17 00:28:21;;;;;;;16.75;3.17;;;5.70;99.90;;;;;;4844091;29;20045;-86
2022/01/17 00:30:47;;;;;;;14.75;2.60;;;5.70;99.90;;;;;;4843683;29;20056;-86
2022/01/17 00:33:13;;;;;;;20.55;2.78;;;5.80;99.90;;;;;;4843752;29;20060;-86
2022/01/17 00:35:38;;;;;;;17.13;3.15;;;5.70;99.90;;;;;;4843857;29;20077;-86
2022/01/17 00:38:04;;;;;;;25.15;3.70;;;5.70;99.90;;;;;;4843193;29;20053;-86
2022/01/17 00:40:30;;;;;;;18.08;3.10;;;5.70;99.90;;;;;;4843864;29;20045;-86
2022/01/17 00:42:56;;;;;;;21.23;3.25;;;5.60;99.90;;;;;;4843588;29;20472;-86
2022/01/17 00:45:27;;;;;;;28.27;3.78;;;5.70;99.90;;;;;;4858851;29;20084;-86
2022/01/17 00:47:55;;;;;;;20.25;3.35;;;5.60;99.90;;;;;;4843355;29;20518;-86
2022/01/17 00:50:22;;;;;;;24.83;3.60;;;5.50;99.90;;;;;;4891849;29;20049;-86
2022/01/17 00:52:48;;;;;;;21.88;2.95;;;5.50;99.90;;;;;;4862198;29;20072;-86
2022/01/17 00:55:14;;;;;;;19.27;2.92;;;5.40;99.90;;;;;;4862346;29;20481;-86
2022/01/17 00:57:40;;;;;;;25.42;3.13;;;5.40;99.90;;;;;;4851716;29;20050;-86
2022/01/17 01:00:08;;;;;;;20.95;3.15;;;5.50;99.90;;;;;;4876040;29;20040;-86
2022/01/17 01:02:34;;;;;;;18.02;2.90;;;5.40;99.90;;;;;;4861865;29;20041;-85
2022/01/17 01:05:00;;;;;;;20.23;3.63;;;5.50;99.90;;;;;;4861433;29;20052;-86
2022/01/17 01:07:25;;;;;;;25.80;3.10;;;5.50;99.90;;;;;;4861119;29;20109;-86
2022/01/17 01:10:07;;;;;;;26.70;2.70;;;5.50;99.90;;;;;;4892774;29;20143;-86
2022/01/17 01:12:33;;;;;;;20.67;3.55;;;5.40;99.90;;;;;;4862017;29;20049;-86
2022/01/17 01:14:59;;;;;;;18.33;3.22;;;5.50;99.90;;;;;;4861177;29;20627;-85
2022/01/17 01:17:36;;;;;;;21.75;2.75;;;5.50;99.90;;;;;;4861481;29;20040;-86
2022/01/17 01:28:16;;;;;;;19.08;3.08;;;5.40;99.90;;;;;;4892568;29;19930;-86
2022/01/17 01:30:47;;;;;;;24.08;3.22;;;5.40;99.90;;;;;;4861195;29;20049;-86
2022/01/17 01:33:19;;;;;;;21.27;2.80;;;5.30;99.90;;;;;;4876808;29;20499;-86
2022/01/17 01:35:46;;;;;;;22.02;4.25;;;5.20;99.90;;;;;;4868558;29;20040;-86
2022/01/17 01:38:12;;;;;;;21.30;3.17;;;5.20;99.90;;;;;;4876419;29;20036;-85
2022/01/17 01:40:38;;;;;;;24.50;3.35;;;5.20;99.90;;;;;;4876796;29;20045;-86
2022/01/17 01:43:04;;;;;;;26.90;3.25;;;5.10;99.90;;;;;;4892095;29;20048;-86
2022/01/17 01:45:29;;;;;;;25.90;3.13;;;5.10;99.90;;;;;;4876885;29;20163;-86
2022/01/17 01:47:55;;;;;;;22.63;2.88;;;5.10;99.90;;;;;;4876843;29;20055;-86
2022/01/17 01:50:22;;;;;;;18.75;2.85;;;5.10;99.90;;;;;;4860985;29;20066;-86
2022/01/17 01:52:48;;;;;;;23.95;4.10;;;5.10;99.90;;;;;;4861284;29;20054;-85
2022/01/17 01:55:16;;;;;;;19.05;2.90;;;5.10;99.90;;;;;;4860922;29;20131;-86
2022/01/17 01:57:43;;;;;;;24.17;3.33;;;5.10;99.90;;;;;;4861384;29;20104;-86
2022/01/17 02:00:10;;;;;;;27.35;4.15;;;5.10;99.90;;;;;;4876487;29;20271;-86
2022/01/17 02:02:36;;;;;;;21.63;2.88;;;5.20;99.90;;;;;;4861484;29;20049;-86
2022/01/17 02:05:04;;;;;;;23.30;3.35;;;5.10;99.90;;;;;;4860448;29;20056;-86
2022/01/17 02:07:30;;;;;;;16.90;2.65;;;5.10;99.90;;;;;;4864502;29;20143;-86
2022/01/17 02:09:56;;;;;;;26.83;3.67;;;5.20;99.90;;;;;;4880151;29;20140;-86
2022/01/17 02:12:22;;;;;;;21.52;3.35;;;5.20;99.90;;;;;;4864704;29;20073;-86
2022/01/17 02:14:50;;;;;;;22.77;3.22;;;5.20;99.90;;;;;;4864406;29;20044;-86
2022/01/17 02:17:19;;;;;;;19.83;3.67;;;5.30;99.90;;;;;;4864963;29;20369;-86
2022/01/17 02:19:46;;;;;;;24.52;2.90;;;5.30;99.90;;;;;;4879278;29;20127;-86
2022/01/17 02:22:15;;;;;;;34.45;3.55;;;5.20;99.90;;;;;;4864646;29;20056;-87
2022/01/17 02:24:41;;;;;;;25.20;3.35;;;5.20;99.90;;;;;;4868686;29;20096;-86
2022/01/17 02:27:06;;;;;;;23.70;3.20;;;5.10;99.90;;;;;;4880263;29;20045;-87
2022/01/17 02:29:32;;;;;;;23.60;3.35;;;5.10;99.90;;;;;;4895772;29;20388;-87
2022/01/17 02:31:58;;;;;;;22.48;3.22;;;5.00;99.90;;;;;;4879897;29;20083;-87
2022/01/17 02:34:23;;;;;;;25.48;3.33;;;5.10;99.90;;;;;;4879915;29;20049;-87
2022/01/17 02:36:49;;;;;;;22.58;3.15;;;5.10;99.90;;;;;;4861438;29;20033;-87
2022/01/17 02:39:16;;;;;;;25.48;3.30;;;5.00;99.90;;;;;;4861491;29;20092;-87
2022/01/17 02:41:44;;;;;;;28.02;3.92;;;5.00;99.90;;;;;;4861093;29;20065;-87
2022/01/17 02:44:10;;;;;;;27.55;3.08;;;4.90;99.90;;;;;;4861265;29;20174;-86
2022/01/17 02:46:36;;;;;;;23.48;2.75;;;4.90;99.90;;;;;;4861445;29;20053;-87
2022/01/17 02:49:04;;;;;;;16.15;2.95;;;4.90;99.90;;;;;;4860674;29;20078;-86
2022/01/17 02:51:30;;;;;;;26.45;3.33;;;4.90;99.90;;;;;;4861399;29;20101;-86
2022/01/17 02:53:56;;;;;;;18.92;3.60;;;4.80;99.90;;;;;;4876418;29;20045;-87
2022/01/17 02:56:23;;;;;;;23.63;3.85;;;4.80;99.90;;;;;;4876575;29;20049;-87
2022/01/17 02:58:49;;;;;;;23.75;3.33;;;4.80;99.90;;;;;;4876630;29;20101;-87
2022/01/17 03:01:25;;;;;;;15.65;3.25;;;4.80;99.90;;;;;;4876857;29;20053;-87
2022/01/17 03:03:51;;;;;;;20.88;3.90;;;4.80;99.90;;;;;;4876125;29;20045;-86
2022/01/17 03:06:17;;;;;;;21.13;3.10;;;4.70;99.90;;;;;;4861118;29;20132;-86
2022/01/17 03:08:44;;;;;;;29.35;3.67;;;4.70;99.90;;;;;;4860451;29;20137;-87
2022/01/17 03:11:16;;;;;;;19.30;2.58;;;4.70;99.90;;;;;;4861100;29;20511;-86
2022/01/17 03:13:42;;;;;;;22.23;3.05;;;4.70;99.90;;;;;;4882039;29;20052;-86
2022/01/17 03:16:16;;;;;;;18.08;3.13;;;4.70;99.90;;;;;;4879430;29;20147;-86
2022/01/17 03:18:45;;;;;;;22.05;3.50;;;4.70;99.90;;;;;;4878182;29;20048;-87
2022/01/17 03:21:12;;;;;;;21.60;3.08;;;4.60;99.90;;;;;;4879571;29;20499;-86
2022/01/17 03:23:39;;;;;;;28.85;2.58;;;4.60;99.90;;;;;;4879005;29;20059;-87
2022/01/17 03:26:05;;;;;;;22.13;3.55;;;4.60;99.90;;;;;;4878881;29;20073;-87
2022/01/17 03:28:31;;;;;;;20.92;2.97;;;4.60;99.90;;;;;;4878800;29;20502;-86
2022/01/17 03:30:58;;;;;;;26.08;4.43;;;4.60;99.90;;;;;;4878982;29;20056;-87
2022/01/17 03:33:25;;;;;;;22.90;3.10;;;4.60;99.90;;;;;;4878969;29;20518;-87
2022/01/17 03:35:51;;;;;;;22.00;3.17;;;4.70;99.90;;;;;;4870902;29;20044;-86
2022/01/17 03:38:19;;;;;;;19.80;2.95;;;4.80;99.90;;;;;;4863875;29;20547;-86
2022/01/17 03:40:50;;;;;;;26.05;3.17;;;4.80;99.90;;;;;;4878389;29;20044;-86
2022/01/17 03:43:16;;;;;;;20.42;3.05;;;4.90;99.90;;;;;;4863764;29;20040;-86
2022/01/17 03:45:42;;;;;;;23.73;3.80;;;5.00;99.90;;;;;;4862916;29;20049;-87
2022/01/17 03:48:08;;;;;;;20.13;3.47;;;4.90;99.90;;;;;;4894092;29;20048;-86
2022/01/17 03:50:34;;;;;;;24.73;3.03;;;4.90;99.90;;;;;;4879172;29;20052;-86
2022/01/17 03:53:00;;;;;;;21.80;3.17;;;4.90;99.90;;;;;;4863118;29;20044;-86
2022/01/17 03:55:28;;;;;;;20.15;3.05;;;4.90;99.90;;;;;;4863292;29;20403;-86
2022/01/17 03:57:54;;;;;;;25.67;3.83;;;4.90;99.90;;;;;;4862829;29;20499;-86
2022/01/17 04:00:26;;;;;;;22.02;2.88;;;4.90;99.90;;;;;;4863396;29;20075;-87
2022/01/17 04:02:52;;;;;;;19.58;2.70;;;4.90;99.90;;;;;;4862540;29;20048;-87
2022/01/17 04:05:19;;;;;;;27.70;3.17;;;5.00;99.90;;;;;;4863233;29;20056;-87
2022/01/17 04:07:45;;;;;;;23.65;3.50;;;5.00;99.90;;;;;;4862549;29;20546;-86
2022/01/17 04:10:11;;;;;;;18.27;2.75;;;5.00;99.90;;;;;;4862985;29;20051;-87
2022/01/17 04:12:37;;;;;;;16.27;3.17;;;5.00;99.90;;;;;;4862804;29;20067;-87
2022/01/17 04:15:03;;;;;;;24.35;3.17;;;5.00;99.90;;;;;;4862903;29;20045;-86
2022/01/17 04:17:29;;;;;;;17.40;2.80;;;5.00;99.90;;;;;;4862732;29;20411;-87
2022/01/17 04:20:04;;;;;;;26.48;3.60;;;5.00;99.90;;;;;;4862698;29;20598;-86
2022/01/17 04:22:41;;;;;;;23.00;2.97;;;5.00;99.90;;;;;;4863051;29;20407;-86
2022/01/17 04:25:08;;;;;;;24.30;3.30;;;5.00;99.90;;;;;;4862842;29;20056;-86
2022/01/17 04:27:34;;;;;;;15.13;2.83;;;4.90;99.90;;;;;;4862658;29;20052;-87
2022/01/17 04:30:00;;;;;;;25.73;3.38;;;5.00;99.90;;;;;;4862151;29;20048;-86
2022/01/17 04:32:26;;;;;;;22.63;3.53;;;5.00;99.90;;;;;;4862612;29;20047;-86
2022/01/17 04:34:52;;;;;;;22.35;3.38;;;5.00;99.90;;;;;;4859186;29;20048;-87
2022/01/17 04:37:17;;;;;;;19.08;2.78;;;5.00;99.90;;;;;;4844360;29;20052;-86
2022/01/17 04:39:43;;;;;;;17.65;2.88;;;4.90;99.90;;;;;;4854144;29;20037;-87
2022/01/17 04:42:13;;;;;;;16.60;2.70;;;4.90;99.90;;;;;;4862296;29;20427;-86
2022/01/17 04:47:24;;;;;;;19.10;2.95;;;4.90;99.90;;;;;;4878147;29;20044;-86
2022/01/17 04:49:50;;;;;;;27.15;3.03;;;4.90;99.90;;;;;;4862963;29;20037;-86
2022/01/17 04:52:16;;;;;;;28.23;3.45;;;4.90;99.90;;;;;;4844076;29;20043;-87
2022/01/17 04:54:44;;;;;;;18.70;2.53;;;5.00;99.90;;;;;;4843537;29;20041;-86
2022/01/17 04:57:11;;;;;;;23.00;3.05;;;4.90;99.90;;;;;;4843870;29;20452;-86
2022/01/17 04:59:41;;;;;;;17.40;3.47;;;5.00;99.90;;;;;;4843199;29;20527;-86
2022/01/17 05:02:07;;;;;;;19.70;3.85;;;5.00;99.90;;;;;;4843773;29;20516;-87
2022/01/17 05:04:33;;;;;;;20.73;3.00;;;5.00;99.90;;;;;;4843730;29;20052;-86
2022/01/17 05:06:59;;;;;;;26.50;3.83;;;5.10;99.90;;;;;;4843673;29;20044;-87
2022/01/17 05:09:24;;;;;;;20.85;3.40;;;5.20;99.90;;;;;;4858810;29;20089;-87
2022/01/17 05:11:50;;;;;;;24.88;3.10;;;5.20;99.90;;;;;;4858748;29;20052;-87
2022/01/17 05:14:16;;;;;;;25.38;3.97;;;5.30;99.90;;;;;;4843137;29;20173;-86
2022/01/17 05:16:48;;;;;;;16.45;3.08;;;5.40;99.90;;;;;;4843581;29;20136;-85
2022/01/17 05:21:57;;;;;;;;;;;5.40;99.90;;;;;;4858817;29;20060;-86
2022/01/17 05:24:23;;;;;;;27.35;3.72;;;5.50;99.90;;;;;;4843233;29;20378;-87
2022/01/17 05:26:48;;;;;;;25.15;3.25;;;5.50;99.90;;;;;;4858449;29;20045;-87
2022/01/17 05:29:14;;;;;;;25.83;3.00;;;5.50;99.90;;;;;;4857233;29;20080;-86
2022/01/17 05:31:40;;;;;;;21.20;3.30;;;5.50;99.90;;;;;;4893075;29;20056;-87
2022/01/17 05:34:06;;;;;;;23.40;4.35;;;5.50;99.90;;;;;;4877251;29;20055;-87
2022/01/17 05:36:31;;;;;;;24.48;4.00;;;5.60;99.90;;;;;;4877220;29;20039;-87
2022/01/17 05:38:57;;;;;;;17.20;3.40;;;5.60;99.90;;;;;;4877576;29;20551;-86
2022/01/17 05:41:22;;;;;;;21.63;3.30;;;5.60;99.90;;;;;;4876901;29;20407;-86
2022/01/17 05:43:48;;;;;;;19.33;4.97;;;5.60;99.90;;;;;;4891620;29;20044;-86
2022/01/17 05:46:13;;;;;;;27.23;4.00;;;5.60;99.90;;;;;;4861843;29;20093;-86
2022/01/17 05:48:39;;;;;;;21.85;4.78;;;5.70;99.90;;;;;;4848257;29;20076;-86
2022/01/17 05:51:05;;;;;;;22.08;3.97;;;5.70;99.90;;;;;;4860909;29;20100;-87
2022/01/17 05:53:31;;;;;;;24.73;4.13;;;5.80;99.90;;;;;;4876857;29;20628;-87
2022/01/17 05:55:56;;;;;;;36.08;5.07;;;5.80;99.90;;;;;;4857487;29;20144;-86
2022/01/17 05:58:22;;;;;;;30.90;4.30;;;5.80;99.90;;;;;;4872624;29;20065;-85
2022/01/17 06:00:48;;;;;;;26.50;4.95;;;5.80;99.90;;;;;;4870229;29;20077;-85
2022/01/17 06:03:14;;;;;;;25.02;4.60;;;5.80;99.90;;;;;;4857472;29;20041;-85
2022/01/17 06:05:40;;;;;;;21.75;5.57;;;5.80;99.90;;;;;;4854708;29;20548;-85
2022/01/17 06:08:06;;;;;;;30.05;5.53;;;5.70;99.90;;;;;;4870264;29;20072;-85
2022/01/17 06:10:32;;;;;;;28.83;5.47;;;5.80;99.90;;;;;;4850209;29;20052;-85
2022/01/17 06:12:58;;;;;;;27.17;5.68;;;5.80;99.90;;;;;;4868506;29;20481;-84
2022/01/17 06:15:23;;;;;;;25.50;5.57;;;5.80;99.90;;;;;;4850314;29;20508;-85
2022/01/17 06:17:49;;;;;;;18.13;5.32;;;5.90;99.90;;;;;;4867149;29;20080;-85
2022/01/17 06:20:15;;;;;;;22.90;6.20;;;5.90;99.90;;;;;;4853004;29;20393;-85
2022/01/17 06:22:40;;;;;;;30.75;6.43;;;5.90;99.90;;;;;;4870378;29;20049;-85
2022/01/17 06:25:06;;;;;;;26.75;6.90;;;5.90;99.90;;;;;;4854693;29;20045;-85
2022/01/17 06:27:32;;;;;;;24.88;6.32;;;5.90;99.90;;;;;;4855950;29;20068;-85
2022/01/17 06:29:59;;;;;;;33.03;7.47;;;6.00;99.90;;;;;;4854681;29;20056;-85
2022/01/17 06:32:26;;;;;;;26.33;6.75;;;5.90;99.90;;;;;;4843886;29;20524;-85
2022/01/17 06:34:53;;;;;;;27.80;6.93;;;5.90;99.90;;;;;;4847663;29;20089;-86
2022/01/17 06:37:18;;;;;;;27.88;7.18;;;5.90;99.90;;;;;;4850125;29;20049;-86
2022/01/17 06:39:44;;;;;;;26.52;7.13;;;6.00;99.90;;;;;;4868256;29;20052;-85
2022/01/17 06:42:09;;;;;;;28.90;7.22;;;6.00;99.90;;;;;;4851850;29;20037;-85
2022/01/17 06:44:35;;;;;;;22.33;6.68;;;6.00;99.90;;;;;;4879607;29;20041;-85
2022/01/17 06:47:01;;;;;;;31.48;7.50;;;6.00;99.90;;;;;;4868331;29;20056;-86
2022/01/17 06:49:26;;;;;;;30.10;7.22;;;6.00;99.90;;;;;;4846362;29;20120;-86
2022/01/17 06:51:52;;;;;;;30.92;7.93;;;6.00;99.90;;;;;;4871558;29;20503;-86
2022/01/17 06:54:17;;;;;;;38.92;8.07;;;6.00;99.90;;;;;;4855470;29;20077;-86
2022/01/17 06:56:44;;;;;;;24.15;7.95;;;6.00;99.90;;;;;;4857647;29;20093;-86
2022/01/17 06:59:11;;;;;;;30.13;8.18;;;6.00;99.90;;;;;;4858318;29;20044;-86
2022/01/17 07:01:38;;;;;;;34.83;8.13;;;6.00;99.90;;;;;;4856956;29;20051;-86
2022/01/17 07:04:05;;;;;;;32.60;8.77;;;6.00;99.90;;;;;;4856410;29;20128;-85
2022/01/17 07:06:31;;;;;;;36.78;8.25;;;6.10;99.90;;;;;;4856163;29;20051;-86
2022/01/17 07:08:56;;;;;;;34.95;9.10;;;6.10;99.90;;;;;;4872046;29;20061;-86
2022/01/17 07:11:22;;;;;;;30.60;7.72;;;6.10;99.90;;;;;;4856836;29;20067;-86
2022/01/17 07:13:48;;;;;;;35.20;8.68;;;6.10;99.90;;;;;;4877961;29;20092;-86
2022/01/17 07:16:13;;;;;;;36.25;8.40;;;6.20;99.90;;;;;;4867974;29;20049;-86
2022/01/17 07:18:39;;;;;;;28.17;7.60;;;6.20;99.90;;;;;;4857892;29;20041;-85
2022/01/17 07:21:05;;;;;;;29.83;8.02;;;6.20;99.90;;;;;;4857955;29;20072;-86
2022/01/17 07:23:30;;;;;;;36.20;9.13;;;6.20;99.90;;;;;;4855941;29;20052;-85
2022/01/17 07:25:56;;;;;;;31.35;8.18;;;6.20;99.90;;;;;;4855890;29;20059;-85
2022/01/17 07:28:22;;;;;;;37.67;8.88;;;6.20;99.90;;;;;;4849581;29;20086;-86
2022/01/17 07:30:47;;;;;;;28.20;7.18;;;6.20;99.90;;;;;;4874677;29;20040;-85
2022/01/17 07:33:13;;;;;;;31.92;7.53;;;6.30;99.90;;;;;;4874064;29;20048;-86
2022/01/17 07:35:39;;;;;;;34.30;7.28;;;6.30;99.90;;;;;;4858002;29;20117;-85
2022/01/17 07:38:05;;;;;;;35.70;7.75;;;6.30;99.90;;;;;;4858436;29;20049;-85
2022/01/17 07:40:31;;;;;;;27.92;6.78;;;6.30;99.90;;;;;;4856332;29;20041;-85
2022/01/17 07:42:57;;;;;;;30.48;7.85;;;6.30;99.90;;;;;;4856465;29;20046;-86
2022/01/17 07:45:22;;;;;;;33.80;7.20;;;6.30;99.90;;;;;;4885435;29;20056;-84
2022/01/17 07:50:22;;;;;;;34.42;7.05;;;6.30;99.90;;;;;;4871207;29;20579;-86
2022/01/17 07:52:48;;;;;;;35.30;7.75;;;6.30;99.90;;;;;;4871577;29;20548;-84
2022/01/17 07:55:15;;;;;;;27.70;6.57;;;6.30;99.90;;;;;;4861256;29;20488;-85
2022/01/17 07:57:44;;;;;;;31.17;6.40;;;6.30;99.90;;;;;;4856619;29;20083;-86
2022/01/17 08:00:13;;;;;;;38.65;7.57;;;6.30;99.90;;;;;;4875145;29;20051;-86
2022/01/17 08:02:38;;;;;;;35.53;7.00;;;6.30;99.90;;;;;;4872047;29;20057;-87
2022/01/17 08:05:04;;;;;;;35.88;6.57;;;6.30;99.90;;;;;;4862089;29;20062;-86
2022/01/17 08:07:30;;;;;;;41.45;6.22;;;6.30;99.90;;;;;;4864982;29;20070;-86
2022/01/17 08:09:56;;;;;;;36.03;6.15;;;6.40;99.90;;;;;;4854649;29;20044;-86
2022/01/17 08:12:22;;;;;;;33.65;5.78;;;6.40;99.90;;;;;;4862050;29;20029;-86
2022/01/17 08:14:47;;;;;;;38.75;7.15;;;6.40;99.90;;;;;;4862055;29;20630;-85
2022/01/17 08:17:13;;;;;;;37.22;7.30;;;6.50;99.90;;;;;;4877977;29;20052;-86
2022/01/17 08:19:39;;;;;;;33.45;6.53;;;6.40;99.90;;;;;;4875876;29;20092;-84
2022/01/17 08:22:06;;;;;;;26.38;6.35;;;6.40;99.90;;;;;;4860419;29;20416;-85
2022/01/17 08:24:33;;;;;;;38.83;6.80;;;6.40;99.90;;;;;;4894643;29;20234;-86
2022/01/17 08:26:59;;;;;;;39.47;7.07;;;6.50;99.90;;;;;;4864576;29;20049;-86
2022/01/17 08:29:28;;;;;;;31.30;6.20;;;6.50;99.90;;;;;;4878027;29;20083;-87
2022/01/17 08:31:59;;;;;;;46.30;6.55;;;6.50;99.90;;;;;;4870306;29;20261;-86
2022/01/17 08:34:25;;;;;;;39.25;5.65;;;6.50;99.90;;;;;;4874776;29;20045;-88
2022/01/17 08:36:50;;;;;;;43.42;6.25;;;6.60;99.90;;;;;;4877479;29;20055;-85
2022/01/17 08:39:16;;;;;;;32.05;6.13;;;6.60;99.90;;;;;;4876268;29;20148;-87
2022/01/17 08:41:42;;;;;;;46.75;6.43;;;6.60;99.90;;;;;;4858755;29;20047;-85
2022/01/17 08:44:15;;;;;;;38.17;6.32;;;6.60;99.90;;;;;;4866391;29;20056;-86
2022/01/17 08:46:41;;;;;;;34.45;6.03;;;6.60;99.90;;;;;;4894811;29;20060;-86
2022/01/17 08:49:07;;;;;;;41.17;5.63;;;6.60;99.90;;;;;;4867523;29;20096;-86
2022/01/17 08:51:33;;;;;;;32.05;6.32;;;6.70;99.90;;;;;;4861877;29;20060;-89
2022/01/17 08:53:59;;;;;;;35.40;5.72;;;6.80;99.90;;;;;;4861546;29;20045;-90
2022/01/17 08:56:27;;;;;;;49.05;6.25;;;6.70;99.90;;;;;;4854462;29;20132;-89
2022/01/17 08:58:53;;;;;;;44.95;5.95;;;6.80;99.90;;;;;;4861819;29;20381;-89
2022/01/17 09:01:19;;;;;;;35.88;5.30;;;6.90;99.90;;;;;;4845158;29;20549;-87
2022/01/17 09:03:45;;;;;;;36.88;5.00;;;6.90;99.90;;;;;;4855933;29;20139;-86
2022/01/17 09:06:10;;;;;;;41.08;6.57;;;7.00;99.90;;;;;;4864623;29;20048;-87
2022/01/17 09:08:36;;;;;;;35.38;6.93;;;6.90;99.90;;;;;;4884335;29;20052;-84
2022/01/17 09:11:01;;;;;;;41.83;5.63;;;6.90;99.90;;;;;;4861135;29;20037;-87
2022/01/17 09:13:27;;;;;;;49.53;6.28;;;6.90;99.90;;;;;;4876785;29;20236;-86
2022/01/17 09:15:53;;;;;;;40.35;5.18;;;6.90;99.90;;;;;;4847131;29;20082;-86
2022/01/17 09:18:20;;;;;;;36.75;5.28;;;6.90;99.90;;;;;;4861238;29;20071;-86
2022/01/17 09:20:46;;;;;;;34.88;6.35;;;6.90;99.90;;;;;;4860662;29;20055;-86
2022/01/17 09:23:12;;;;;;;45.67;6.07;;;6.90;99.90;;;;;;4853975;29;20136;-85
2022/01/17 09:25:38;;;;;;;37.78;5.35;;;6.90;99.90;;;;;;4857565;29;20055;-87
2022/01/17 09:28:04;;;;;;;47.03;6.07;;;7.00;99.90;;;;;;4857248;29;20037;-87
2022/01/17 09:30:30;;;;;;;43.38;5.80;;;7.00;99.90;;;;;;4857237;29;20044;-87
2022/01/17 09:32:56;;;;;;;40.15;6.35;;;7.10;99.90;;;;;;4863754;29;20052;-86
2022/01/17 09:35:23;;;;;;;51.50;6.07;;;7.10;99.90;;;;;;4862942;29;20051;-85
2022/01/17 09:37:50;;;;;;;43.45;6.05;;;7.10;99.90;;;;;;4860395;29;20053;-85
2022/01/17 09:40:19;;;;;;;49.25;6.28;;;7.10;99.90;;;;;;4876808;29;20078;-87
2022/01/17 09:42:45;;;;;;;36.63;5.05;;;7.20;99.90;;;;;;4861527;29;20067;-87
2022/01/17 09:45:14;;;;;;;39.22;5.53;;;7.20;99.90;;;;;;4861693;29;20135;-87
2022/01/17 09:47:40;;;;;;;39.95;5.63;;;7.30;99.90;;;;;;4858588;29;20041;-87
2022/01/17 09:50:10;;;;;;;40.97;5.50;;;7.30;99.90;;;;;;4845012;29;20060;-88
2022/01/17 09:52:39;;;;;;;32.63;4.93;;;7.40;99.90;;;;;;4875257;29;20045;-87
2022/01/17 09:55:12;;;;;;;40.13;5.85;;;7.50;99.90;;;;;;4859393;29;20037;-88
2022/01/17 09:57:54;;;;;;;35.03;4.90;;;7.60;99.90;;;;;;4859146;29;20056;-87
2022/01/17 10:00:25;;;;;;;47.80;6.18;;;7.60;99.90;;;;;;4851168;29;20072;-88
2022/01/17 10:02:56;;;;;;;56.63;6.70;;;7.70;99.90;;;;;;4861372;29;20457;-87
2022/01/17 10:05:22;;;;;;;43.28;5.40;;;7.80;99.90;;;;;;4850416;29;20041;-86
2022/01/17 10:07:50;;;;;;;44.67;6.20;;;7.80;99.90;;;;;;4864250;29;20080;-87
2022/01/17 10:10:16;;;;;;;46.65;6.55;;;7.80;99.90;;;;;;4858734;29;20049;-88
2022/01/17 10:12:41;;;;;;;47.95;6.22;;;7.90;99.90;;;;;;4892140;29;20116;-86
2022/01/17 10:15:12;;;;;;;45.22;5.45;;;8.00;99.90;;;;;;4868335;29;20044;-86
2022/01/17 10:17:43;;;;;;;34.88;5.68;;;8.20;99.90;;;;;;4851510;29;20511;-86
2022/01/17 10:20:11;;;;;;;42.55;6.32;;;8.20;99.90;;;;;;4876212;29;20036;-86
2022/01/17 10:22:48;;;;;;;47.60;6.13;;;8.30;99.90;;;;;;4860941;29;20406;-87
2022/01/17 10:31:20;;;;;;;49.90;6.90;;;8.50;99.90;;;;;;4877638;29;20152;-88
2022/01/17 10:36:49;;;;;;;41.90;6.15;;;8.70;99.90;;;;;;4895782;29;20060;-87
2022/01/17 10:39:15;;;;;;;47.78;6.68;;;8.80;99.90;;;;;;4861886;29;20056;-85
2022/01/17 10:41:41;;;;;;;53.55;5.97;;;8.80;99.90;;;;;;4870793;29;20037;-87
2022/01/17 10:44:07;;;;;;;43.35;6.05;;;8.90;99.90;;;;;;4846194;29;20109;-86
2022/01/17 10:46:33;;;;;;;46.10;5.97;;;8.90;99.90;;;;;;4857443;29;20048;-86
2022/01/17 10:48:59;;;;;;;44.72;6.80;;;8.90;99.90;;;;;;4863502;29;20056;-86
2022/01/17 10:51:42;;;;;;;44.83;6.45;;;8.90;99.90;;;;;;4875950;29;20623;-87
2022/01/17 10:54:13;;;;;;;35.83;6.15;;;9.00;99.90;;;;;;4863290;29;20120;-86
2022/01/17 10:57:05;;;;;;;45.65;6.70;;;9.00;99.90;;;;;;4845546;29;20053;-86
2022/01/17 10:59:33;;;;;;;47.50;6.50;;;9.10;99.90;;;;;;4886819;29;20061;-88
2022/01/17 11:01:59;;;;;;;41.88;6.38;;;9.10;99.90;;;;;;4861365;29;20040;-87
2022/01/17 11:04:38;;;;;;;42.42;6.47;;;9.20;99.90;;;;;;4860057;29;20403;-87
2022/01/17 11:07:07;;;;;;;51.85;6.15;;;9.10;99.90;;;;;;4856162;29;20160;-86
2022/01/17 11:09:44;;;;;;;50.53;7.13;;;9.20;99.90;;;;;;4864053;29;20060;-89
2022/01/17 11:12:11;;;;;;;56.40;7.95;;;9.10;99.90;;;;;;4865833;29;20101;-85
2022/01/17 11:14:42;;;;;;;47.40;6.43;;;9.10;99.90;;;;;;4855898;29;20093;-85
2022/01/17 11:17:24;;;;;;;53.55;6.88;;;9.10;99.90;;;;;;4878424;29;20049;-85
2022/01/17 11:20:08;;;;;;;46.55;6.97;;;9.10;99.90;;;;;;4862641;29;20654;-85
2022/01/17 11:22:45;;;;;;;52.60;7.55;;;9.00;99.90;;;;;;4863518;29;20048;-85
2022/01/17 11:25:21;;;;;;;42.75;6.25;;;9.00;99.90;;;;;;4855745;29;20037;-86
2022/01/17 11:27:48;;;;;;;55.97;7.82;;;9.20;99.90;;;;;;4852016;29;20044;-85
2022/01/17 11:30:16;;;;;;;54.50;7.57;;;9.10;99.90;;;;;;4853554;29;20412;-86
2022/01/17 11:32:43;;;;;;;47.00;7.25;;;9.20;99.90;;;;;;4855545;29;20048;-85
2022/01/17 11:35:09;;;;;;;53.35;7.07;;;9.30;99.90;;;;;;4860997;29;20048;-86
2022/01/17 11:37:41;;;;;;;54.00;7.68;;;9.40;99.90;;;;;;4851522;29;20036;-85
2022/01/17 11:40:09;;;;;;;55.78;6.97;;;9.40;99.90;;;;;;4862343;29;20415;-83
2022/01/17 11:42:51;;;;;;;55.70;8.02;;;9.50;99.90;;;;;;4865484;29;20073;-85
2022/01/17 11:45:23;;;;;;;47.33;6.85;;;9.50;99.90;;;;;;4868815;29;20045;-85
2022/01/17 11:47:49;;;;;;;60.25;8.13;;;9.60;99.90;;;;;;4877712;29;20049;-85
2022/01/17 11:50:27;;;;;;;52.67;8.20;;;9.60;99.90;;;;;;4860080;29;20063;-86
2022/01/17 11:53:19;;;;;;;56.92;7.95;;;9.60;99.90;;;;;;4859467;29;20545;-85
2022/01/17 11:55:47;;;;;;;65.45;7.75;;;9.50;99.90;;;;;;4851716;29;20103;-85
2022/01/17 11:58:24;;;;;;;46.85;7.60;;;9.60;99.90;;;;;;4875332;29;20060;-85
2022/01/17 12:01:14;;;;;;;52.13;8.05;;;9.60;99.90;;;;;;4858987;29;20059;-87
2022/01/17 12:03:47;;;;;;;49.28;8.48;;;9.80;99.90;;;;;;4855690;29;20128;-88
2022/01/17 12:06:36;;;;;;;55.50;7.63;;;9.70;99.90;;;;;;4862677;29;20068;-87
2022/01/17 12:09:17;;;;;;;61.97;8.90;;;9.70;99.90;;;;;;4870309;29;20537;-88
2022/01/17 12:11:43;;;;;;;53.95;6.95;;;9.90;99.90;;;;;;4857888;29;20624;-86
2022/01/17 12:14:27;;;;;;;62.33;7.07;;;9.80;99.90;;;;;;4874846;29;20049;-85
2022/01/17 12:16:54;;;;;;;58.55;7.68;;;9.80;99.90;;;;;;4877717;29;20055;-86
2022/01/17 12:19:20;;;;;;;50.67;7.90;;;9.80;99.90;;;;;;4859082;29;20077;-86
2022/01/17 12:22:03;;;;;;;51.15;7.07;;;9.80;99.90;;;;;;4860197;29;20048;-87
2022/01/17 12:24:40;;;;;;;58.78;6.80;;;9.70;99.90;;;;;;4855025;29;20080;-86
2022/01/17 12:27:17;;;;;;;58.72;7.47;;;9.70;99.90;;;;;;4856930;29;20049;-88
2022/01/17 12:29:51;;;;;;;57.45;7.85;;;9.60;99.90;;;;;;4859119;29;20052;-88
2022/01/17 12:32:26;;;;;;;52.10;7.45;;;9.70;99.90;;;;;;4876262;29;20053;-85
2022/01/17 12:34:58;;;;;;;53.88;6.93;;;9.70;99.90;;;;;;4878702;29;20452;-88
2022/01/17 12:37:42;;;;;;;58.35;7.90;;;9.60;99.90;;;;;;4892681;29;20033;-87
2022/01/17 12:40:13;;;;;;;58.90;6.97;;;9.60;99.90;;;;;;4859005;29;20056;-87
2022/01/17 12:42:59;;;;;;;48.90;7.72;;;9.80;99.90;;;;;;4877637;29;20045;-86
2022/01/17 12:45:41;;;;;;;53.00;7.60;;;9.90;99.90;;;;;;4862042;29;20053;-87
2022/01/17 12:48:13;;;;;;;60.22;8.32;;;9.90;99.90;;;;;;4862190;29;20563;-87
2022/01/17 12:50:41;;;;;;;47.33;6.68;;;9.90;99.90;;;;;;4856986;29;20057;-87
2022/01/17 12:53:09;;;;;;;48.38;7.43;;;10.00;99.90;;;;;;4843614;29;20128;-88
2022/01/17 12:55:41;;;;;;;41.67;6.25;;;10.00;99.90;;;;;;4877519;29;20041;-87
2022/01/17 12:58:14;;;;;;;54.05;7.20;;;10.00;99.90;;;;;;4877103;29;20036;-90
2022/01/17 13:00:48;;;;;;;50.67;8.10;;;10.00;99.90;;;;;;4861372;29;20511;-90
2022/01/17 13:03:15;;;;;;;50.35;6.75;;;9.90;99.90;;;;;;4864788;29;20051;-87
2022/01/17 13:05:41;;;;;;;55.97;7.63;;;9.80;99.90;;;;;;4860559;29;20076;-86
2022/01/17 13:08:07;;;;;;;38.53;7.47;;;9.80;99.90;;;;;;4855243;29;20053;-88
2022/01/17 13:10:34;;;;;;;51.03;7.30;;;9.70;99.90;;;;;;4856276;29;20059;-87
2022/01/17 13:13:01;;;;;;;52.22;7.18;;;9.60;99.90;;;;;;4865078;29;20129;-88
2022/01/17 13:15:27;;;;;;;50.17;7.40;;;9.60;99.90;;;;;;4873263;29;20667;-90
2022/01/17 13:17:56;;;;;;;40.20;5.60;;;9.50;99.90;;;;;;4851412;29;20392;-91
2022/01/17 13:20:23;;;;;;;48.92;7.40;;;9.50;99.90;;;;;;4873975;29;20484;-88